Time;durP1;ratioP1;P1;durP2;ratioP2;P2;SDS_P1;SDS_P2;PMS_P1;PMS_P2;Temp;Humidity;BMP_temperature;BMP_pressure;BME280_temperature;BME280_humidity;BME280_pressure;Samples;Min_cycle;Max_cycle;Signal;HPM_P1;HPM_P2
2023/01/08 00:01:19;;;;;;;69.70;33.70;;;;;;;2.81;94.61;100081.13;106124;1276;22531;-59
2023/01/08 00:03:53;;;;;;;68.40;32.40;;;;;;;2.79;94.58;100081.80;106135;1281;22537;-60
2023/01/08 00:06:24;;;;;;;69.50;34.10;;;;;;;2.78;94.57;100073.31;106290;1266;22651;-58
2023/01/08 00:08:55;;;;;;;70.30;33.20;;;;;;;2.76;94.56;100075.49;106256;1276;23370;-60
2023/01/08 00:11:26;;;;;;;64.80;31.50;;;;;;;2.72;94.51;100076.14;106311;1265;22546;-61
2023/01/08 00:13:57;;;;;;;70.10;33.40;;;;;;;2.70;94.68;100066.89;106283;1272;22560;-60
2023/01/08 00:16:28;;;;;;;66.10;31.50;;;;;;;2.68;94.56;100066.72;106189;1271;22599;-59
2023/01/08 00:18:59;;;;;;;61.00;31.10;;;;;;;2.64;94.68;100065.24;106605;1271;22704;-59
2023/01/08 00:21:30;;;;;;;60.50;30.70;;;;;;;2.63;94.81;100064.88;106677;1274;22532;-59
2023/01/08 00:24:01;;;;;;;70.00;32.40;;;;;;;2.59;94.83;100057.15;106748;1275;24381;-58
2023/01/08 00:26:32;;;;;;;66.70;32.20;;;;;;;2.59;94.92;100055.90;106593;1268;25404;-59
2023/01/08 00:29:03;;;;;;;69.20;32.90;;;;;;;2.58;94.89;100056.39;106584;1267;25383;-58
2023/01/08 00:31:34;;;;;;;68.20;32.80;;;;;;;2.56;94.82;100052.13;106600;1272;23013;-58
2023/01/08 00:34:05;;;;;;;61.00;31.20;;;;;;;2.56;94.87;100060.30;106564;1275;22548;-59
2023/01/08 00:36:36;;;;;;;69.00;32.40;;;;;;;2.54;94.82;100060.74;106574;1275;22527;-62
2023/01/08 00:39:07;;;;;;;62.70;31.40;;;;;;;2.51;94.81;100054.13;106608;1274;24352;-59
2023/01/08 00:41:38;;;;;;;66.40;32.00;;;;;;;2.49;94.83;100051.02;106718;1275;24315;-59
2023/01/08 00:44:09;;;;;;;65.30;33.70;;;;;;;2.47;94.86;100050.42;106635;1275;25587;-60
2023/01/08 00:46:40;;;;;;;65.00;32.60;;;;;;;2.49;95.00;100043.70;106740;1275;22539;-60
2023/01/08 00:49:11;;;;;;;65.40;32.10;;;;;;;2.49;94.98;100048.88;106605;1272;24231;-59
2023/01/08 00:51:42;;;;;;;70.30;33.10;;;;;;;2.47;94.80;100042.63;106735;1253;24245;-61
2023/01/08 00:54:13;;;;;;;65.70;32.50;;;;;;;2.43;94.81;100038.94;106653;1275;24385;-59
2023/01/08 00:56:44;;;;;;;70.40;35.80;;;;;;;2.43;94.92;100029.02;106844;1275;22521;-57
2023/01/08 00:59:15;;;;;;;73.40;37.70;;;;;;;2.42;94.81;100031.89;106575;1272;22561;-60
2023/01/08 01:01:46;;;;;;;75.20;38.10;;;;;;;2.41;94.70;100036.40;106542;1272;22530;-59
2023/01/08 01:04:17;;;;;;;72.40;35.30;;;;;;;2.39;94.84;100034.55;106566;1275;24388;-60
2023/01/08 01:06:48;;;;;;;65.30;35.00;;;;;;;2.38;94.90;100042.83;106534;1269;24379;-59
2023/01/08 01:09:19;;;;;;;67.40;34.20;;;;;;;2.37;94.93;100046.02;106544;1275;22526;-58
2023/01/08 01:11:49;;;;;;;64.80;33.50;;;;;;;2.36;94.94;100046.82;106559;1275;23163;-58
2023/01/08 01:14:20;;;;;;;66.20;30.90;;;;;;;2.36;94.97;100053.12;106581;1273;22579;-61
2023/01/08 01:16:51;;;;;;;67.00;32.30;;;;;;;2.35;94.89;100050.15;106571;1272;22523;-61
2023/01/08 01:19:22;;;;;;;72.20;34.90;;;;;;;2.34;94.85;100048.35;106544;1269;22746;-60
2023/01/08 01:21:53;;;;;;;74.60;36.40;;;;;;;2.34;94.94;100043.31;106524;1275;24203;-59
2023/01/08 01:24:24;;;;;;;71.30;35.20;;;;;;;2.35;94.90;100040.01;106571;1267;22733;-59
2023/01/08 01:26:56;;;;;;;76.30;38.20;;;;;;;2.36;94.86;100037.67;106709;1275;24268;-60
2023/01/08 01:29:27;;;;;;;71.00;35.90;;;;;;;2.38;94.89;100038.50;106635;1262;22513;-59
2023/01/08 01:31:58;;;;;;;69.80;34.70;;;;;;;2.39;94.78;100037.86;106585;1274;25459;-58
2023/01/08 01:34:29;;;;;;;65.90;33.00;;;;;;;2.38;94.67;100030.16;106543;1275;22579;-60
2023/01/08 01:37:00;;;;;;;59.10;31.60;;;;;;;2.37;94.65;100027.52;106598;1272;22534;-60
2023/01/08 01:39:31;;;;;;;67.30;35.10;;;;;;;2.36;94.58;100026.27;106585;1260;25356;-60
2023/01/08 01:42:02;;;;;;;76.00;38.70;;;;;;;2.34;94.52;100014.77;106747;1275;25525;-61
2023/01/08 01:44:41;;;;;;;68.20;35.90;;;;;;;2.32;94.53;100011.81;106851;1274;25395;-60
2023/01/08 01:47:25;;;;;;;70.10;36.40;;;;;;;2.31;94.53;100012.08;107092;1274;22523;-59
2023/01/08 01:50:01;;;;;;;78.20;40.80;;;;;;;2.29;94.67;100011.58;107061;1266;22529;-61
2023/01/08 01:52:37;;;;;;;74.40;40.30;;;;;;;2.28;94.64;100014.98;107194;1274;22584;-61
2023/01/08 01:55:11;;;;;;;75.20;39.60;;;;;;;2.25;94.72;100020.64;107047;1275;24035;-61
2023/01/08 01:57:46;;;;;;;71.20;36.10;;;;;;;2.24;94.76;100019.08;107157;1274;25427;-61
2023/01/08 02:00:19;;;;;;;70.60;37.30;;;;;;;2.24;94.72;100016.79;107068;1274;22540;-60
2023/01/08 02:02:51;;;;;;;72.50;39.50;;;;;;;2.24;94.72;100015.06;107142;1269;22524;-61
2023/01/08 02:05:23;;;;;;;70.60;39.00;;;;;;;2.22;94.76;100010.01;107170;1262;22739;-60
2023/01/08 02:08:02;;;;;;;73.30;38.00;;;;;;;2.21;94.76;100006.70;107078;1274;25456;-61
2023/01/08 02:10:42;;;;;;;75.10;39.40;;;;;;;2.20;94.78;100004.61;107064;1262;22561;-61
2023/01/08 02:13:19;;;;;;;72.90;37.00;;;;;;;2.19;94.73;100003.77;106973;1275;23013;-61
2023/01/08 02:15:57;;;;;;;71.90;35.30;;;;;;;2.15;94.84;100003.23;107021;1271;23135;-59
2023/01/08 02:18:34;;;;;;;72.10;36.30;;;;;;;2.14;94.82;99999.71;107035;1274;24110;-60
2023/01/08 02:21:13;;;;;;;71.30;35.50;;;;;;;2.12;94.85;100008.80;107117;1274;25288;-62
2023/01/08 02:23:53;;;;;;;68.00;33.60;;;;;;;2.12;94.98;100003.38;107222;1274;25516;-60
2023/01/08 02:26:27;;;;;;;66.70;33.50;;;;;;;2.11;94.99;99991.59;107339;1265;22565;-59
2023/01/08 02:29:03;;;;;;;70.30;35.50;;;;;;;2.12;95.02;99983.71;107188;1268;22527;-60
2023/01/08 02:31:36;;;;;;;70.20;34.10;;;;;;;2.11;95.02;99983.02;107072;1259;23146;-59
2023/01/08 02:34:08;;;;;;;64.20;34.90;;;;;;;2.11;95.07;99982.30;107090;1262;25365;-60
2023/01/08 02:36:41;;;;;;;68.10;36.00;;;;;;;2.12;95.06;99984.89;107023;1262;22610;-61
2023/01/08 02:39:33;;;;;;;71.30;34.80;;;;;;;2.11;95.01;99975.70;107099;1267;22588;-61
2023/01/08 02:42:09;;;;;;;76.00;35.80;;;;;;;2.10;95.00;99976.75;107192;1274;24264;-61
2023/01/08 02:44:50;;;;;;;72.90;36.10;;;;;;;2.06;95.05;99972.52;107202;1274;24298;-60
2023/01/08 02:47:29;;;;;;;68.10;35.70;;;;;;;2.04;95.20;99973.98;107045;1274;22501;-61
2023/01/08 02:50:07;;;;;;;75.00;35.70;;;;;;;2.03;95.11;99978.64;107145;1275;22534;-60
2023/01/08 02:52:47;;;;;;;74.30;37.00;;;;;;;2.02;95.13;99977.73;107094;1273;23616;-60
2023/01/08 02:55:20;;;;;;;72.70;36.00;;;;;;;1.99;95.07;99975.11;107199;1274;22539;-60
2023/01/08 02:57:52;;;;;;;67.90;35.80;;;;;;;1.98;95.24;99965.16;107559;1272;22809;-60
2023/01/08 03:00:24;;;;;;;73.60;37.40;;;;;;;1.98;95.32;99958.69;107674;1264;22523;-59
2023/01/08 03:03:05;;;;;;;72.60;37.00;;;;;;;1.99;95.33;99966.55;107133;1274;22515;-58
2023/01/08 03:05:38;;;;;;;72.80;36.70;;;;;;;1.96;95.15;99986.98;107157;1275;24222;-59
2023/01/08 03:08:10;;;;;;;75.50;38.20;;;;;;;1.93;95.18;99992.87;107056;1275;24180;-61
2023/01/08 03:10:45;;;;;;;69.50;35.10;;;;;;;1.93;95.22;99994.36;107138;1274;24228;-59
2023/01/08 03:13:21;;;;;;;68.00;35.00;;;;;;;1.92;95.15;99982.11;107066;1275;24181;-58
2023/01/08 03:15:56;;;;;;;75.60;36.40;;;;;;;1.93;95.21;99975.17;107155;1274;24906;-58
2023/01/08 03:18:32;;;;;;;77.80;36.20;;;;;;;1.91;95.06;99980.41;107206;1271;22534;-59
2023/01/08 03:21:06;;;;;;;73.80;36.40;;;;;;;1.89;95.03;99987.92;107188;1274;22530;-59
2023/01/08 03:23:39;;;;;;;67.50;34.60;;;;;;;1.89;95.07;99990.83;107156;1275;22542;-58
2023/01/08 03:26:13;;;;;;;64.70;34.30;;;;;;;1.89;94.97;99991.06;107112;1275;25986;-60
2023/01/08 03:28:47;;;;;;;68.70;33.20;;;;;;;1.89;94.97;99991.00;107219;1274;24295;-59
2023/01/08 03:31:20;;;;;;;68.40;34.30;;;;;;;1.89;95.05;99982.34;107096;1269;22528;-59
2023/01/08 03:33:51;;;;;;;66.50;34.60;;;;;;;1.88;94.86;99985.81;107151;1274;25427;-59
2023/01/08 03:36:28;;;;;;;70.10;34.00;;;;;;;1.89;94.93;99980.85;107106;1272;22554;-58
2023/01/08 03:39:05;;;;;;;66.60;34.50;;;;;;;1.89;94.89;99976.52;107035;1274;22652;-60
2023/01/08 03:41:37;;;;;;;68.90;34.10;;;;;;;1.90;94.83;99976.11;107233;1275;25291;-58
2023/01/08 03:44:08;;;;;;;71.30;35.80;;;;;;;1.87;94.68;99977.49;107189;1270;22536;-58
2023/01/08 03:46:44;;;;;;;65.20;33.50;;;;;;;1.86;94.69;99972.11;107081;1274;25294;-59
2023/01/08 03:49:17;;;;;;;70.80;32.80;;;;;;;1.86;94.70;99970.06;107063;1274;22538;-59
2023/01/08 03:51:49;;;;;;;76.80;34.40;;;;;;;1.84;94.61;99969.72;107347;1273;24114;-59
2023/01/08 03:54:24;;;;;;;68.60;33.90;;;;;;;1.82;94.75;99951.33;107094;1274;22529;-60
2023/01/08 03:56:55;;;;;;;66.60;32.20;;;;;;;1.84;94.84;99942.05;107343;1274;25995;-60
2023/01/08 03:59:26;;;;;;;72.80;34.60;;;;;;;1.83;94.78;99939.84;107109;1260;25589;-60
2023/01/08 04:01:57;;;;;;;71.90;34.40;;;;;;;1.82;94.85;99930.91;107083;1268;24209;-60
2023/01/08 04:04:27;;;;;;;67.20;34.20;;;;;;;1.81;94.90;99922.59;107020;1271;24228;-59
2023/01/08 04:06:58;;;;;;;64.10;31.70;;;;;;;1.82;95.04;99923.50;107027;1272;24150;-60
2023/01/08 04:09:29;;;;;;;70.90;34.40;;;;;;;1.81;94.97;99915.36;107063;1274;24295;-60
2023/01/08 04:12:00;;;;;;;66.50;32.70;;;;;;;1.80;95.06;99908.48;107110;1274;22511;-59
2023/01/08 04:14:31;;;;;;;72.90;36.30;;;;;;;1.78;95.20;99906.77;107079;1274;23163;-60
2023/01/08 04:17:02;;;;;;;72.80;35.40;;;;;;;1.78;95.20;99903.34;107085;1270;25435;-58
2023/01/08 04:19:33;;;;;;;69.60;34.40;;;;;;;1.78;95.24;99901.84;107077;1273;22531;-60
2023/01/08 04:22:03;;;;;;;64.30;34.70;;;;;;;1.77;95.36;99902.09;107039;1275;23174;-59
2023/01/08 04:24:34;;;;;;;72.50;37.60;;;;;;;1.76;95.29;99904.61;107060;1268;26530;-58
2023/01/08 04:27:05;;;;;;;71.10;34.70;;;;;;;1.76;95.35;99908.40;107078;1275;25546;-58
2023/01/08 04:29:36;;;;;;;72.20;34.60;;;;;;;1.77;95.39;99910.03;107008;1274;22543;-58
2023/01/08 04:32:07;;;;;;;64.30;33.20;;;;;;;1.77;95.38;99919.70;107108;1275;24251;-60
2023/01/08 04:34:38;;;;;;;68.70;34.50;;;;;;;1.77;95.30;99913.56;107069;1275;22617;-59
2023/01/08 04:37:09;;;;;;;71.50;35.30;;;;;;;1.76;95.38;99909.81;107122;1267;24218;-61
2023/01/08 04:39:40;;;;;;;69.50;33.70;;;;;;;1.76;95.46;99917.98;107085;1271;25294;-60
2023/01/08 04:42:11;;;;;;;71.10;33.30;;;;;;;1.74;95.64;99925.90;107039;1261;22507;-60
2023/01/08 04:44:42;;;;;;;65.80;31.80;;;;;;;1.71;95.77;99922.35;107104;1275;22887;-58
2023/01/08 04:47:13;;;;;;;68.60;32.90;;;;;;;1.71;95.73;99920.31;107084;1274;22534;-59
2023/01/08 04:49:44;;;;;;;64.70;31.10;;;;;;;1.69;95.83;99915.63;107218;1274;22576;-60
2023/01/08 04:52:15;;;;;;;59.50;30.40;;;;;;;1.68;95.89;99906.38;107000;1275;24969;-61
2023/01/08 04:54:46;;;;;;;67.50;32.50;;;;;;;1.68;95.94;99901.02;107071;1267;22530;-60
2023/01/08 04:57:17;;;;;;;63.20;31.70;;;;;;;1.70;95.88;99899.66;107076;1274;22572;-60
2023/01/08 04:59:48;;;;;;;64.70;32.60;;;;;;;1.72;95.88;99900.09;107239;1274;22699;-61
2023/01/08 05:02:19;;;;;;;61.30;31.30;;;;;;;1.74;95.91;99897.38;107356;1272;25505;-58
2023/01/08 05:04:50;;;;;;;75.70;34.30;;;;;;;1.74;95.83;99896.89;107783;1261;26347;-61
2023/01/08 05:07:21;;;;;;;64.40;31.80;;;;;;;1.74;95.86;99894.52;107085;1270;24235;-61
2023/01/08 05:09:52;;;;;;;69.30;34.00;;;;;;;1.74;95.77;99889.80;107021;1264;22616;-61
2023/01/08 05:12:23;;;;;;;63.90;32.50;;;;;;;1.75;95.79;99885.86;107077;1267;22537;-59
2023/01/08 05:14:54;;;;;;;69.80;33.30;;;;;;;1.75;95.77;99881.52;107121;1275;22540;-60
2023/01/08 05:17:25;;;;;;;65.40;31.40;;;;;;;1.75;95.64;99879.23;107081;1274;22535;-59
2023/01/08 05:19:56;;;;;;;62.40;31.50;;;;;;;1.76;95.67;99867.20;107089;1270;25298;-59
2023/01/08 05:22:27;;;;;;;59.00;30.80;;;;;;;1.76;95.73;99868.62;107117;1272;22727;-60
2023/01/08 05:24:58;;;;;;;66.60;31.00;;;;;;;1.76;95.61;99873.78;107085;1270;24841;-59
2023/01/08 05:27:29;;;;;;;58.20;30.30;;;;;;;1.77;95.67;99874.02;107071;1261;22518;-61
2023/01/08 05:30:00;;;;;;;54.90;26.60;;;;;;;1.76;95.65;99867.42;107103;1267;24205;-60
2023/01/08 05:32:31;;;;;;;62.40;29.90;;;;;;;1.77;95.74;99858.45;107080;1274;22553;-57
2023/01/08 05:35:02;;;;;;;58.60;28.00;;;;;;;1.77;95.67;99855.79;107124;1274;22674;-58
2023/01/08 05:37:35;;;;;;;59.50;28.90;;;;;;;1.77;95.70;99854.52;107087;1274;22647;-60
2023/01/08 05:40:07;;;;;;;66.60;30.60;;;;;;;1.78;95.69;99844.59;107366;1264;24257;-59
2023/01/08 05:42:39;;;;;;;59.00;29.40;;;;;;;1.78;95.68;99840.95;107224;1273;24208;-59
2023/01/08 05:45:11;;;;;;;57.70;28.80;;;;;;;1.79;95.64;99853.91;107127;1268;23051;-61
2023/01/08 05:47:42;;;;;;;65.80;31.90;;;;;;;1.80;95.74;99856.04;107169;1270;22548;-59
2023/01/08 05:50:13;;;;;;;60.80;29.00;;;;;;;1.80;95.73;99852.94;107093;1274;24230;-58
2023/01/08 05:52:44;;;;;;;58.10;27.40;;;;;;;1.79;95.64;99856.98;106849;1274;22531;-58
2023/01/08 05:55:15;;;;;;;57.60;28.90;;;;;;;1.79;95.53;99854.39;106971;1274;24241;-59
2023/01/08 05:57:46;;;;;;;61.00;30.20;;;;;;;1.78;95.53;99852.20;107228;1258;24260;-62
2023/01/08 06:00:18;;;;;;;63.90;32.30;;;;;;;1.77;95.51;99852.70;107042;1261;22529;-59
2023/01/08 06:02:49;;;;;;;63.70;32.40;;;;;;;1.78;95.45;99852.60;107165;1274;25053;-60
2023/01/08 06:05:20;;;;;;;60.10;35.40;;;;;;;1.78;95.45;99851.80;107202;1274;22635;-61
2023/01/08 06:07:51;;;;;;;61.50;32.30;;;;;;;1.78;95.27;99852.77;107064;1267;22572;-59
2023/01/08 06:10:22;;;;;;;59.20;29.80;;;;;;;1.76;95.24;99849.20;107064;1274;25511;-61
2023/01/08 06:12:54;;;;;;;60.50;30.40;;;;;;;1.75;95.13;99845.84;107055;1274;22543;-60
2023/01/08 06:15:24;;;;;;;58.30;29.40;;;;;;;1.72;95.17;99839.70;107053;1274;22648;-60
2023/01/08 06:17:56;;;;;;;52.30;26.10;;;;;;;1.71;95.22;99833.82;107082;1270;25437;-58
2023/01/08 06:20:27;;;;;;;56.40;27.00;;;;;;;1.70;95.13;99837.86;107331;1267;22604;-59
2023/01/08 06:22:58;;;;;;;59.00;28.20;;;;;;;1.69;95.19;99838.48;107097;1270;22585;-61
2023/01/08 06:25:29;;;;;;;52.50;25.00;;;;;;;1.70;95.21;99837.80;107084;1264;25552;-58
2023/01/08 06:28:00;;;;;;;53.30;27.10;;;;;;;1.69;95.28;99830.64;107112;1270;22599;-60
2023/01/08 06:30:31;;;;;;;55.90;27.60;;;;;;;1.69;95.25;99825.86;107041;1267;22635;-59
2023/01/08 06:33:02;;;;;;;55.90;28.00;;;;;;;1.68;95.26;99822.66;107099;1274;22542;-60
2023/01/08 06:35:33;;;;;;;57.10;27.60;;;;;;;1.68;95.30;99822.97;107034;1274;22540;-58
2023/01/08 06:38:05;;;;;;;53.80;24.90;;;;;;;1.68;95.36;99828.95;106999;1267;22538;-60
2023/01/08 06:40:35;;;;;;;59.50;27.40;;;;;;;1.67;95.33;99832.34;107119;1273;24766;-60
2023/01/08 06:43:07;;;;;;;64.20;28.70;;;;;;;1.68;95.31;99825.72;107057;1264;22547;-61
2023/01/08 06:45:38;;;;;;;68.20;34.60;;;;;;;1.68;95.35;99814.09;107104;1259;22520;-60
2023/01/08 06:48:09;;;;;;;55.70;27.60;;;;;;;1.66;95.48;99801.85;107056;1274;22537;-62
2023/01/08 06:50:40;;;;;;;51.40;25.80;;;;;;;1.64;95.75;99793.09;106990;1274;22546;-60
2023/01/08 06:53:10;;;;;;;51.70;26.70;;;;;;;1.65;96.18;99799.90;107005;1267;24736;-62
2023/01/08 06:55:41;;;;;;;56.30;25.90;;;;;;;1.67;96.46;99806.09;107038;1259;22529;-61
2023/01/08 06:58:13;;;;;;;53.70;25.60;;;;;;;1.69;96.45;99816.73;106973;1270;22661;-60
2023/01/08 07:00:45;;;;;;;50.70;23.50;;;;;;;1.69;96.50;99809.65;106949;1269;25290;-61
2023/01/08 07:03:16;;;;;;;53.10;25.30;;;;;;;1.72;96.69;99814.31;107031;1260;22520;-60
2023/01/08 07:05:49;;;;;;;54.50;25.30;;;;;;;1.72;96.56;99818.07;107018;1274;22540;-62
2023/01/08 07:08:20;;;;;;;52.30;25.20;;;;;;;1.74;96.41;99820.88;107416;1264;25316;-60
2023/01/08 07:10:51;;;;;;;63.80;29.40;;;;;;;1.75;96.36;99819.82;107327;1260;22572;-59
2023/01/08 07:13:23;;;;;;;85.00;40.00;;;;;;;1.75;96.36;99821.45;106964;1274;22523;-61
2023/01/08 07:15:54;;;;;;;74.70;35.80;;;;;;;1.77;96.42;99823.85;107166;1275;22546;-61
2023/01/08 07:18:25;;;;;;;66.50;32.10;;;;;;;1.78;96.44;99816.67;107142;1274;24221;-60
2023/01/08 07:20:56;;;;;;;70.10;33.00;;;;;;;1.79;96.56;99813.02;106924;1274;22539;-61
2023/01/08 07:23:27;;;;;;;70.00;33.50;;;;;;;1.80;96.67;99815.61;106991;1267;22776;-61
2023/01/08 07:26:01;;;;;;;61.40;28.80;;;;;;;1.79;96.58;99822.46;106968;1268;22535;-59
2023/01/08 07:28:32;;;;;;;64.20;29.50;;;;;;;1.80;96.77;99818.29;107204;1267;24292;-59
2023/01/08 07:31:06;;;;;;;61.50;30.50;;;;;;;1.80;96.87;99818.10;106988;1272;24735;-60
2023/01/08 07:33:37;;;;;;;59.30;30.00;;;;;;;1.82;96.96;99816.96;107136;1274;22557;-60
2023/01/08 07:36:10;;;;;;;57.90;27.20;;;;;;;1.84;97.08;99820.30;106940;1259;22591;-59
2023/01/08 07:38:41;;;;;;;58.00;27.40;;;;;;;1.85;97.13;99814.45;107144;1260;22581;-61
2023/01/08 07:41:13;;;;;;;59.10;28.10;;;;;;;1.86;97.31;99811.60;107076;1274;24193;-59
2023/01/08 07:43:43;;;;;;;63.50;30.70;;;;;;;1.87;97.35;99807.41;107154;1260;22534;-60
2023/01/08 07:46:14;;;;;;;64.50;30.80;;;;;;;1.90;97.35;99806.63;106979;1267;24185;-60
2023/01/08 07:48:45;;;;;;;67.20;30.40;;;;;;;1.91;97.24;99806.83;107001;1270;22685;-61
2023/01/08 07:51:16;;;;;;;67.40;32.40;;;;;;;1.92;97.41;99805.85;106964;1268;23311;-60
2023/01/08 07:53:47;;;;;;;61.20;29.90;;;;;;;1.93;97.39;99800.10;106977;1275;24303;-60
2023/01/08 07:56:18;;;;;;;63.30;30.60;;;;;;;1.94;97.49;99797.02;106958;1269;26862;-60
2023/01/08 07:58:49;;;;;;;71.50;33.40;;;;;;;1.95;97.43;99798.40;107083;1274;24279;-61
2023/01/08 08:01:20;;;;;;;70.40;34.80;;;;;;;1.97;97.46;99795.20;107004;1274;22529;-61
2023/01/08 08:03:51;;;;;;;70.40;32.20;;;;;;;1.99;97.51;99785.87;107009;1271;22551;-60
2023/01/08 08:06:22;;;;;;;59.80;31.00;;;;;;;2.01;97.45;99782.74;107033;1267;23923;-60
2023/01/08 08:08:52;;;;;;;58.90;28.90;;;;;;;2.02;97.51;99775.10;107005;1275;24717;-60
2023/01/08 08:11:23;;;;;;;67.80;31.70;;;;;;;2.04;97.64;99770.48;106924;1270;23061;-61
2023/01/08 08:13:54;;;;;;;63.30;29.30;;;;;;;2.06;97.71;99768.00;106931;1259;25449;-60
2023/01/08 08:16:25;;;;;;;59.90;27.80;;;;;;;2.07;97.69;99762.77;106983;1267;23298;-60
2023/01/08 08:18:57;;;;;;;61.40;29.60;;;;;;;2.08;97.71;99765.48;106977;1274;22580;-59
2023/01/08 08:21:29;;;;;;;56.40;27.60;;;;;;;2.09;97.88;99767.36;106941;1267;22536;-59
2023/01/08 08:24:01;;;;;;;56.70;27.20;;;;;;;2.11;98.04;99771.39;107079;1274;22538;-59
2023/01/08 08:26:32;;;;;;;59.70;28.20;;;;;;;2.13;98.16;99772.29;107148;1271;22658;-60
2023/01/08 08:29:02;;;;;;;53.60;26.60;;;;;;;2.13;98.12;99765.34;106911;1274;24180;-59
2023/01/08 08:31:33;;;;;;;53.10;27.40;;;;;;;2.15;98.22;99767.13;107005;1267;22537;-60
2023/01/08 08:34:05;;;;;;;55.90;27.20;;;;;;;2.17;98.15;99764.06;106956;1270;22524;-61
2023/01/08 08:36:36;;;;;;;54.50;26.50;;;;;;;2.18;98.27;99755.64;107027;1270;24205;-61
2023/01/08 08:39:08;;;;;;;58.00;28.00;;;;;;;2.20;98.24;99749.27;106985;1274;22532;-61
2023/01/08 08:41:38;;;;;;;57.00;27.10;;;;;;;2.22;98.35;99751.98;106994;1274;25643;-61
2023/01/08 08:44:09;;;;;;;56.20;27.10;;;;;;;2.26;98.47;99750.08;106916;1274;22535;-61
2023/01/08 08:46:41;;;;;;;53.20;25.90;;;;;;;2.29;98.49;99742.13;106941;1274;23014;-61
2023/01/08 08:49:12;;;;;;;55.50;26.10;;;;;;;2.32;98.63;99742.89;106958;1270;22602;-59
2023/01/08 08:51:43;;;;;;;56.60;27.00;;;;;;;2.35;98.74;99734.40;106852;1259;25568;-62
2023/01/08 08:54:14;;;;;;;57.10;25.80;;;;;;;2.39;98.77;99737.58;106891;1257;23018;-60
2023/01/08 08:56:45;;;;;;;55.90;24.00;;;;;;;2.42;98.91;99762.75;106893;1272;22527;-60
2023/01/08 08:59:16;;;;;;;54.70;25.90;;;;;;;2.46;98.98;99764.45;106971;1271;22931;-62
2023/01/08 09:01:47;;;;;;;60.90;26.10;;;;;;;2.50;99.12;99746.65;106844;1261;22601;-60
2023/01/08 09:04:18;;;;;;;59.90;27.50;;;;;;;2.55;99.26;99749.52;106849;1267;22551;-59
2023/01/08 09:06:49;;;;;;;55.70;26.80;;;;;;;2.59;99.40;99756.40;107015;1272;24230;-60
2023/01/08 09:09:20;;;;;;;54.60;25.90;;;;;;;2.62;99.48;99753.86;107077;1266;24361;-58
2023/01/08 09:11:52;;;;;;;63.00;28.30;;;;;;;2.67;99.60;99751.44;106942;1273;22523;-61
2023/01/08 09:14:23;;;;;;;51.30;27.20;;;;;;;2.71;99.62;99748.72;107459;1272;24209;-60
2023/01/08 09:16:54;;;;;;;58.20;30.20;;;;;;;2.77;99.80;99750.45;107294;1257;24738;-62
2023/01/08 09:19:24;;;;;;;61.70;27.30;;;;;;;2.82;99.83;99757.30;106992;1272;22527;-59
2023/01/08 09:21:55;;;;;;;56.10;26.10;;;;;;;2.87;99.88;99752.96;106891;1272;23025;-60
2023/01/08 09:24:26;;;;;;;55.60;26.40;;;;;;;2.93;99.95;99750.42;106932;1273;23151;-61
2023/01/08 09:26:57;;;;;;;51.70;25.60;;;;;;;2.98;100.00;99754.47;106962;1270;24250;-60
2023/01/08 09:29:28;;;;;;;59.80;28.60;;;;;;;3.04;100.00;99760.02;107017;1272;22531;-61
2023/01/08 09:32:00;;;;;;;56.40;28.00;;;;;;;3.10;100.00;99759.13;106917;1259;22537;-59
2023/01/08 09:34:32;;;;;;;57.50;30.60;;;;;;;3.17;100.00;99759.40;107059;1259;22527;-60
2023/01/08 09:37:03;;;;;;;57.40;28.50;;;;;;;3.23;100.00;99753.92;106918;1262;23135;-59
2023/01/08 09:39:35;;;;;;;50.70;26.70;;;;;;;3.30;100.00;99751.83;107056;1273;25306;-61
2023/01/08 09:42:07;;;;;;;58.30;28.70;;;;;;;3.39;100.00;99749.83;107121;1266;22523;-61
2023/01/08 09:44:42;;;;;;;61.90;30.20;;;;;;;3.47;100.00;99746.88;107107;1272;22851;-61
2023/01/08 09:47:24;;;;;;;52.70;27.90;;;;;;;3.53;100.00;99751.40;107008;1265;22531;-59
2023/01/08 09:49:58;;;;;;;57.30;28.00;;;;;;;3.60;100.00;99748.43;107023;1251;24181;-60
2023/01/08 09:52:30;;;;;;;63.00;29.80;;;;;;;3.68;100.00;99740.27;107226;1273;22968;-59
2023/01/08 09:55:01;;;;;;;56.30;27.90;;;;;;;3.75;100.00;99734.61;107063;1250;22559;-61
2023/01/08 09:57:33;;;;;;;54.60;27.00;;;;;;;3.82;100.00;99734.92;107013;1272;22531;-60
2023/01/08 10:00:10;;;;;;;56.50;26.40;;;;;;;3.88;100.00;99726.42;106894;1273;24251;-59
2023/01/08 10:02:42;;;;;;;52.10;25.10;;;;;;;3.95;100.00;99718.45;106953;1273;23154;-60
2023/01/08 10:05:17;;;;;;;52.90;25.00;;;;;;;4.04;100.00;99717.73;106732;1271;24384;-59
2023/01/08 10:07:48;;;;;;;55.10;27.50;;;;;;;4.13;100.00;99715.63;106654;1259;22782;-59
2023/01/08 10:10:22;;;;;;;54.60;25.80;;;;;;;4.21;100.00;99712.29;106676;1272;22918;-60
2023/01/08 10:12:54;;;;;;;54.00;25.10;;;;;;;4.29;100.00;99711.83;106682;1273;22788;-59
2023/01/08 10:15:25;;;;;;;58.10;30.80;;;;;;;4.38;100.00;99710.08;106681;1259;25313;-59
2023/01/08 10:18:02;;;;;;;56.90;27.70;;;;;;;4.47;100.00;99696.17;106767;1273;22527;-60
2023/01/08 10:20:34;;;;;;;53.70;26.70;;;;;;;4.58;100.00;99685.09;106792;1272;22535;-59
2023/01/08 10:23:13;;;;;;;60.00;28.50;;;;;;;4.67;100.00;99677.48;106597;1273;24401;-63
2023/01/08 10:25:52;;;;;;;46.50;23.60;;;;;;;4.76;100.00;99679.67;106671;1262;22537;-59
2023/01/08 10:28:26;;;;;;;47.40;22.50;;;;;;;4.84;100.00;99687.14;106637;1266;22541;-60
2023/01/08 10:31:04;;;;;;;44.70;22.10;;;;;;;4.95;100.00;99685.72;106786;1249;22570;-59
2023/01/08 10:33:42;;;;;;;43.50;22.50;;;;;;;5.03;100.00;99676.88;106645;1270;26636;-60
2023/01/08 10:36:15;;;;;;;44.50;20.60;;;;;;;5.11;100.00;99678.13;106739;1266;25248;-60
2023/01/08 10:38:55;;;;;;;40.30;19.30;;;;;;;5.19;100.00;99676.48;106752;1272;22539;-60
2023/01/08 10:41:27;;;;;;;42.20;19.90;;;;;;;5.26;100.00;99673.08;106774;1265;25253;-59
2023/01/08 10:44:01;;;;;;;42.40;19.00;;;;;;;5.33;100.00;99670.13;106704;1265;22536;-57
2023/01/08 10:46:35;;;;;;;46.70;21.40;;;;;;;5.39;100.00;99670.05;106923;1266;24256;-59
2023/01/08 10:49:14;;;;;;;38.70;18.30;;;;;;;5.45;100.00;99675.62;106759;1265;24196;-60
2023/01/08 10:51:54;;;;;;;39.40;18.60;;;;;;;5.53;100.00;99674.66;106612;1273;24241;-60
2023/01/08 10:54:36;;;;;;;38.00;17.80;;;;;;;5.61;100.00;99667.69;106757;1250;25262;-59
2023/01/08 10:57:22;;;;;;;37.00;16.50;;;;;;;5.66;100.00;99661.23;106748;1272;24218;-59
2023/01/08 10:59:53;;;;;;;35.30;17.00;;;;;;;5.71;100.00;99663.38;106788;1273;25471;-60
2023/01/08 11:02:34;;;;;;;37.40;17.40;;;;;;;5.77;100.00;99663.78;107003;1265;22527;-59
2023/01/08 11:05:06;;;;;;;;;;;;;;;5.84;100.00;99665.70;106768;1270;25475;-59
2023/01/08 11:07:39;;;;;;;39.80;18.20;;;;;;;5.88;100.00;99665.63;106781;1272;25492;-61
2023/01/08 11:10:24;;;;;;;44.40;20.00;;;;;;;5.93;100.00;99656.33;106635;1265;22698;-60
2023/01/08 11:12:59;;;;;;;40.20;18.80;;;;;;;5.98;100.00;99644.08;106674;1270;22530;-60
2023/01/08 11:15:34;;;;;;;40.60;18.10;;;;;;;6.02;100.00;99637.89;106695;1273;22539;-59
2023/01/08 11:18:15;;;;;;;32.90;16.00;;;;;;;6.06;100.00;99635.88;106794;1273;22530;-60
2023/01/08 11:20:46;;;;;;;37.70;16.80;;;;;;;6.10;100.00;99631.02;107078;1270;24239;-60
2023/01/08 11:23:21;;;;;;;33.40;15.00;;;;;;;6.16;100.00;99636.02;106940;1268;23021;-61
2023/01/08 11:26:00;;;;;;;37.70;16.10;;;;;;;6.19;100.00;99633.53;106931;1270;25249;-59
2023/01/08 11:28:42;;;;;;;34.40;16.30;;;;;;;6.24;100.00;99629.37;106923;1270;22524;-59
2023/01/08 11:31:18;;;;;;;30.70;13.00;;;;;;;6.30;100.00;99627.19;106945;1270;23021;-60
2023/01/08 11:33:55;;;;;;;34.80;15.80;;;;;;;6.37;100.00;99630.99;107002;1270;22527;-59
2023/01/08 11:36:30;;;;;;;36.50;16.20;;;;;;;6.42;100.00;99632.58;106999;1257;22527;-59
2023/01/08 11:39:02;;;;;;;37.30;18.10;;;;;;;6.47;100.00;99631.45;107263;1270;22642;-62